x

8452944 - Conimicut Light, Ri (cptr1) Weather Station

7:48 - Wed 10th Feb 2016 All times are EST. -5 hours from GMT.

  • Wind
    8mph, 9mph gusts
  • Sea Temp 39°f
  • Aire Temp 33°f
  • Sea Pressure 1004.3mb
  • 8452944 - Conimicut Light, Ri
  • 8452944 - Conimicut Light, Ri

More Historic Weather Station data

Upgrade to MSW Pro to gain access to the past 30 days of data for over 8000 Wavebouys and Weather Stations around the globe.

Join Pro

Comparision Forecast

View Surf forecast
   
mié 02/10 7:48 8 9 mph 1004.3mb 39f 33f
7:42 8 9 mph 1004.4mb 39f 33f
7:36 8 10 mph 1004.3mb 39f 33f
7:30  -  mph 1004.3mb 39f 33f
7:24  -  mph 1004.2mb 39f 33f
7:18  -  mph 1004.2mb 39f 33f
7:12  -  mph 1004.3mb 39f 34f
7:06  -  mph 1004.2mb 39f 34f
7:00  -  mph 1004.2mb 39f 34f
6:54  -  mph 1004.2mb 39f 34f
6:48 8 9 mph 1004.2mb 39f -
6:42 8 10 mph 1004.2mb 39f -
6:36 9 10 mph 1004.2mb 39f -
6:30  -  mph 1004.2mb 39f 35f
6:24  -  mph 1004mb 39f 35f
6:18  -  mph 1003.9mb 39f 35f
6:12  -  mph 1003.9mb 39f 35f
6:06  -  mph 1003.9mb 39f 35f
6:00  -  mph 1003.8mb 39f 35f
5:54  -  mph 1003.7mb 39f 35f
5:48 7 9 mph - 39f 35f
5:42 8 9 mph - 39f 35f
5:36 7 8 mph - 39f 35f
5:30 7 8 mph 1003.4mb 39f -
5:24 6 7 mph 1003.2mb 39f -
5:18  -  mph 1003.2mb 39f 35f
5:12  -  mph 1003.1mb 39f 35f
5:06  -  mph 1003mb 39f 35f
5:00 6 7 mph - 39f 35f
4:54 6 7 mph - 39f 35f
4:48 6 7 mph 1002.6mb 39f 35f
4:42 6 7 mph 1002.6mb 39f 35f
4:36 6 8 mph 1002.5mb 39f 35f
4:30 8 9 mph 1002.5mb 39f 35f
4:24 7 9 mph 1002.4mb 39f 35f
4:18 8 9 mph 1002.3mb 39f 35f
4:12 8 9 mph 1002.3mb 39f 35f
4:06 9
mph
1002.3mb 39f 35f
4:00 7 8 mph 1002.2mb 39f 34f
3:54 8 9 mph 1002.1mb 39f 34f
3:48 8 9 mph 1002mb 39f 34f
3:42 7 8 mph 1002mb 39f 33f
3:36 7 8 mph 1002mb 39f 33f
3:30 7 8 mph 1001.9mb 39f 33f
3:24 7 8 mph 1001.9mb 39f 33f
3:18 7 8 mph 1001.8mb 39f 33f
3:12 7 8 mph 1001.7mb 39f 33f
3:06 8 9 mph 1001.6mb 39f 33f
3:00 8
mph
1001.6mb 39f 32f
2:54 6 7 mph 1001.6mb 39f 32f
2:48 5 6 mph 1001.6mb 39f 32f
2:42 5 6 mph 1001.6mb 39f 32f
2:36 5 6 mph 1001.6mb 39f 32f
2:30 2 3 mph 1001.5mb 39f 33f
2:24 2 3 mph 1001.5mb 39f 33f
2:18 2 3 mph 1001.5mb 39f 33f
2:12 2 3 mph 1001.4mb 39f 33f
2:06 3
mph
1001.4mb 39f 33f
2:00 3
mph
1001.4mb 39f 33f
1:54 3
mph
1001.4mb 39f 33f
1:48 2 3 mph 1001.4mb 39f 33f
1:42 2 3 mph 1001.3mb 39f 33f
1:36 2 3 mph 1001.4mb 39f 33f
1:30 3
mph
1001.4mb 39f 33f
1:24 3 5 mph 1001.4mb 39f 33f
1:18 2 3 mph 1001.4mb 39f 33f
1:12 3
mph
1001.5mb 39f 33f
1:06 2
mph
1001.5mb 39f 33f
1:00 2 3 mph 1001.5mb 39f 33f
12:54 2 3 mph 1001.6mb 39f 33f
12:48 2
mph
1001.6mb 39f 33f
12:42 1 2 mph 1001.6mb 39f 33f
12:36 1 2 mph 1001.7mb 39f 33f
12:30  -  1 mph 1001.7mb 39f 33f
12:24 1 2 mph 1001.8mb 39f 32f
12:18 2 3 mph 1001.9mb 39f 32f
12:12 2
mph
1001.9mb 39f 32f
12:06 2 3 mph 1002mb 39f 32f
12:00 2
mph
1002.1mb 39f 33f
11:54  -  mph 1002.1mb 39f 33f
11:48  -  2 mph 1002.2mb 39f 33f
11:42 1 2 mph 1002.3mb 39f 33f
11:36  -  1 mph 1002.4mb 39f 33f
11:30  -  3 mph 1002.5mb 39f 32f
11:24 2 5 mph 1002.5mb 39f 32f
11:18 2 5 mph 1002.6mb 39f 32f
11:12 3 5 mph 1002.7mb 39f 32f
11:06 3 5 mph 1002.8mb 39f 32f
11:00 3 5 mph 1002.8mb 39f 32f
10:54 1 3 mph 1002.9mb 39f 32f
10:48 3
mph
1002.9mb 39f 33f
10:42 3 5 mph 1003mb 39f 33f
10:36 2 3 mph 1003.2mb 39f 32f
10:30 2 5 mph 1003.3mb 39f 32f
10:24 3 6 mph 1003.3mb 39f 32f
10:18 3 6 mph 1003.3mb 39f 31f
10:12 3 6 mph 1003.4mb 39f 31f
10:06 3 5 mph 1003.4mb 39f 31f
10:00 3 5 mph 1003.4mb 39f 31f
9:54 3 5 mph 1003.4mb 39f 31f
9:48 2 3 mph 1003.5mb 39f 31f
9:42 3
mph
1003.5mb 39f 31f
9:36 2 3 mph 1003.5mb 39f 31f
9:30 2
mph
1003.6mb 39f 30f
9:24 2 3 mph 1003.6mb 39f 31f
9:18 2 3 mph 1003.6mb 39f 30f
9:12 2 3 mph 1003.6mb 39f 30f
9:06 2 3 mph 1003.7mb 39f 30f
9:00 1 5 mph 1003.7mb 39f 30f
8:54 3 5 mph 1003.7mb 39f 29f
8:48 5 6 mph 1003.7mb 39f 30f
8:42 3 6 mph 1003.7mb 39f 29f
8:36 5 6 mph 1003.8mb 39f 29f
8:30 5 6 mph 1003.8mb 39f 29f
8:24 5 6 mph 1003.7mb 39f 29f
8:18 3 6 mph 1003.7mb 39f 29f
8:12 5 6 mph 1003.7mb 39f 29f
8:06 3
mph
1003.7mb 38f 29f
8:00 3 5 mph 1003.7mb 38f 28f
7:54 3 5 mph 1003.7mb 38f 28f
7:48 3
mph
1003.7mb 38f 28f
7:42 2 3 mph 1003.7mb 38f 28f
7:36 1 2 mph 1003.7mb 38f 28f
7:30 2
mph
1003.7mb 38f 28f
7:24 1 2 mph 1003.7mb 38f 28f
7:18  -  2 mph 1003.7mb 38f 28f
7:12  -  1 mph 1003.7mb 38f 28f
7:06  -  2 mph 1003.6mb 38f 28f
7:00 1 2 mph 1003.6mb 38f 28f
6:54 1 3 mph 1003.6mb 38f 28f
6:48 1 2 mph 1003.6mb 38f 28f
6:42  -  2 mph 1003.5mb 39f 28f
6:36 1 2 mph 1003.5mb 39f 28f
6:30 1 2 mph 1003.5mb 39f 28f
6:24 1 2 mph 1003.4mb 39f 28f
6:18 1 2 mph 1003.4mb 39f 28f
6:12  -  2 mph 1003.4mb 39f 28f
6:06  -  2 mph 1003.4mb 39f 28f
6:00 1 2 mph 1003.4mb 39f 28f
5:54  -  2 mph 1003.4mb 39f 27f
5:48  -  1 mph 1003.4mb 39f 27f
5:42 1 2 mph 1003.4mb 39f 27f
5:36 1 3 mph 1003.5mb 39f 27f
5:30 2 3 mph 1003.4mb 38f 27f
5:24 2 5 mph 1003.4mb 38f 27f
5:18 3 6 mph 1003.3mb 38f 26f
5:12 5 7 mph 1003.3mb 38f 27f
5:06 6 7 mph 1003.3mb 38f 27f
5:00 3
mph
1003.4mb 38f 27f
4:54 2 3 mph 1003.4mb 38f 27f
4:48  -  mph 1003.3mb 38f 27f
4:42  -  mph 1003.2mb 38f 27f
4:36  -  mph 1003.2mb 38f 27f
4:30 3 5 mph 1003.1mb 38f 27f
4:24 5 6 mph 1003mb 38f 27f
4:18 5
mph
1003mb 38f 27f
4:12 3 5 mph 1003mb 38f 27f
4:06 2 3 mph 1003.1mb 38f 26f
4:00 2 3 mph 1003.1mb 38f 26f
3:54 2
mph
1003.2mb 38f 26f
3:48 2
mph
1003.2mb 38f 25f
3:42 2
mph
1003.3mb 38f 25f
3:36 2
mph
1003.2mb 38f 25f
3:30 2
mph
1003.2mb 38f 25f
3:24 2 3 mph 1003.2mb 38f 25f
3:18 3 5 mph 1003.1mb 38f 25f
3:12 2 5 mph 1003.1mb 38f 25f
3:06 5 6 mph 1003mb 38f 26f
3:00 5
mph
1003mb 38f 26f
2:54 3 5 mph 1003mb 38f 26f
2:48 5 6 mph 1003mb 38f 26f
2:42 5 6 mph 1003.1mb 38f 26f
2:36 5
mph
1003.2mb 38f 26f
2:30 3
mph
1003.2mb 38f 25f
2:24 3
mph
1003.2mb 38f 25f
2:18 2
mph
1003.3mb 38f 26f
2:12  -  2 mph 1003.3mb 38f 26f
2:06 2
mph
1003.3mb 38f 26f
2:00  -  2 mph 1003.3mb 38f 26f
1:54  -  mph 1003.2mb 38f 27f
1:48  -  1 mph 1003.2mb 38f 27f
1:42 1 2 mph 1003.3mb 38f 26f
1:36  -  1 mph 1003.2mb 38f 27f
1:30  -  2 mph 1003.2mb 38f 27f
1:24 2 3 mph 1003.1mb 38f 27f
1:18 2 3 mph 1003.1mb 38f 28f
1:12 2
mph
1003.1mb 38f 28f
1:06 3
mph
1003.1mb 38f 28f
1:00 3
mph
1003.1mb 38f 28f
12:54 2 3 mph 1003.1mb 38f 28f
12:48  -  mph 1003.2mb 38f 28f
12:42  -  mph 1003.2mb 38f 28f
12:36  -  2 mph 1003.2mb 38f 28f
12:30 3 5 mph 1003mb 38f 28f
12:24 1 5 mph 1002.9mb 38f 28f
12:18  -  1 mph 1003.2mb 38f 28f
12:12  -  2 mph 1003.3mb 38f 28f
12:06 3
mph
1003.2mb 38f 28f
12:00 2 5 mph 1003.3mb 38f 28f
mar 02/09 11:54 5
mph
1003.2mb 38f 28f
11:48 5
mph
1003.2mb 38f 28f
11:42 5
mph
1003.2mb 38f 28f
11:36 3 5 mph 1003.4mb 38f 29f
11:30 3
mph
1003.5mb 38f 28f
11:24 3 5 mph 1003.5mb 38f 28f
11:18 2
mph
1003.6mb 38f 29f
11:12 2 3 mph 1003.6mb 38f 29f
11:06 2 5 mph 1003.7mb 38f 29f
11:00 5 6 mph 1003.5mb 38f 29f
10:54 5 7 mph 1003.5mb 38f 29f
10:48 6 7 mph 1003.5mb 38f 29f
10:42 6 7 mph 1003.3mb 39f 29f
10:36 6 7 mph 1003.4mb 39f 29f
10:30 6 7 mph 1003.5mb 39f 29f
10:24 7
mph
1003.4mb 39f 29f
10:18 6 7 mph 1003.4mb 39f 29f
10:12 5 6 mph 1003.6mb 39f 29f
10:06 5 6 mph 1003.6mb 39f 29f
10:00 3
mph
1003.7mb 39f 29f
9:54 2 3 mph 1003.8mb 39f 29f
9:48  -  mph 1003.8mb 39f 29f
9:42  -  mph 1003.8mb 39f 29f
9:36  -  mph 1004mb 39f 29f
9:30 3 6 mph 1003.9mb 39f 29f
9:24 3 6 mph 1003.9mb 39f 29f
9:18 6 7 mph 1004mb 39f 29f
9:12 6
mph
1004.2mb 39f 29f
9:06 6 7 mph 1004.1mb 39f 29f
9:00 6 7 mph 1004.1mb 39f 29f
8:54 6
mph
1004.1mb 39f 29f
8:48 6 7 mph 1004.2mb 39f 29f
8:42 6 7 mph 1004.2mb 39f 29f
8:36 6 7 mph 1004.1mb 39f 29f
8:30 6
mph
1004.1mb 39f 29f
8:24 2 3 mph 1004.1mb 39f 29f
8:18 1 2 mph 1004mb 39f 30f
8:12 2 3 mph 1004mb 39f 30f
8:06 3 5 mph 1003.9mb 39f 30f
8:00 3 6 mph 1003.9mb 39f 30f
7:54 5 6 mph 1003.8mb 39f 30f
7:48  -  mph 1003.8mb 39f 30f
7:42  -  mph 1003.7mb 39f 30f
7:36  -  mph 1003.6mb 39f 30f
7:30 7 8 mph 1003.4mb 39f 30f
7:24 8 10 mph 1003.3mb 39f 30f
7:18  -  mph 1003.3mb 39f 30f
7:12  -  mph 1003.4mb 39f 30f
7:06  -  mph 1003.4mb 39f 30f
7:00  -  mph 1003.4mb 39f 29f
6:54  -  mph 1003.2mb 39f 30f
6:48 9 10 mph 1003.2mb 39f 30f
6:42 8 10 mph 1003.3mb 39f 30f
6:36 8 10 mph 1003.3mb 39f 30f
6:30 9 11 mph 1003.3mb 39f 30f
6:24 8 9 mph 1003.4mb 39f 30f
6:18 8 9 mph 1003.4mb 39f 30f
6:12 8
mph
1003.5mb 39f 30f
6:06 7 8 mph 1003.5mb 39f 30f
6:00 7 8 mph 1003.6mb 39f 30f
5:54 7 8 mph 1003.6mb 39f 30f
5:48 7 8 mph 1003.5mb 39f 30f
5:42 7 8 mph 1003.4mb 39f 30f
5:36 8 9 mph 1003.4mb 39f 30f
5:30 8
mph
1003.3mb 39f 31f
5:24 7 9 mph 1003.3mb 39f 31f
5:18 7 8 mph 1003.2mb 39f 31f
5:12 6 8 mph 1003.2mb 39f 30f
5:06 7 9 mph 1003.1mb 39f 31f
5:00 8 10 mph 1002.9mb 38f 31f
4:54 9 11 mph 1002.7mb 38f 31f
4:48 8 10 mph 1002.7mb 38f 31f
4:42 9 10 mph 1002.6mb 38f 31f
4:36 9 11 mph 1002.6mb 38f 31f
4:30 10 11 mph 1002.5mb 38f 31f
4:24 9 10 mph 1002.5mb 38f 31f
4:18 8 10 mph 1002.6mb 38f 31f
4:12 9 10 mph 1002.5mb 38f 31f
4:06 7 9 mph 1002.4mb 38f 31f
4:00 9 11 mph 1002.4mb 38f 31f
3:54 9 10 mph 1002.4mb 38f 31f
3:48 9 13 mph 1002.3mb 38f 31f
3:42 10 11 mph 1002.2mb 38f 31f
3:36 10 11 mph 1002.2mb 38f 31f
3:30 9 11 mph 1002.2mb 38f 31f
3:24 8 11 mph 1002.1mb 38f 31f
3:18 9 10 mph 1002.1mb 38f 31f
3:12 7 11 mph 1002.1mb 38f 31f
3:06 7 10 mph 1002.1mb 38f 31f
3:00 9 13 mph 1002mb 38f 31f
2:54 8 11 mph 1002mb 38f 31f
2:48 9 13 mph 1002mb 38f 31f
2:42 8 10 mph 1002.1mb 38f 30f
2:36 10 11 mph 1002.1mb 38f 31f
2:30 8 13 mph 1002.1mb 38f 31f
2:24 9 11 mph 1002.1mb 38f 30f
2:18 8 11 mph 1002.2mb 38f 30f
2:12 9 13 mph 1002.2mb 38f 31f
2:06 10 13 mph 1002.3mb 38f 30f
2:00 11 15 mph 1002.2mb 38f 31f
1:54 10 11 mph 1002.3mb 38f 31f
1:48 10 13 mph 1002.2mb 38f 30f
1:42 10 14 mph 1002.3mb 38f 30f
1:36 10 14 mph 1002.4mb 38f 31f
1:30 9 14 mph 1002.4mb 38f 31f
1:24 11 15 mph 1002.4mb 38f 29f
1:18 10 14 mph 1002.3mb 38f 31f
1:12 8 13 mph 1002.3mb 38f 31f
1:06 9 13 mph 1002.4mb 38f 31f
1:00 10 13 mph 1002.5mb 38f 31f
12:54 9 13 mph 1002.6mb 38f 31f
12:48 9 11 mph 1002.8mb 38f 31f
12:42 10 11 mph 1002.7mb 38f 31f
12:36 10 13 mph 1002.8mb 38f 30f
12:30 11 14 mph 1003mb 38f 30f
12:24 8 10 mph 1003.2mb 38f 31f
12:18 8 14 mph 1003.3mb 38f 30f
12:12 10 14 mph 1003.3mb 38f 30f
12:06 11 14 mph 1003.5mb 38f 31f
12:00 10 13 mph 1003.6mb 38f 30f
11:54 10 13 mph 1003.8mb 38f 30f
11:48 10 13 mph 1003.8mb 38f 29f
11:42 10 13 mph 1003.9mb 38f 29f
11:36 8 10 mph 1004mb 38f 29f
11:30 7 10 mph 1004.2mb 38f 29f
11:24 9 13 mph 1004.3mb 38f 29f
11:18 10 13 mph 1004.2mb 38f 29f
11:12 11 14 mph 1004.1mb 38f 29f
11:06 10 13 mph 1004.2mb 38f 28f
11:00 10 11 mph 1004.6mb 38f 27f
10:54 9 13 mph 1004.8mb 38f 27f
10:48 8 11 mph 1004.7mb 38f 27f
10:42 9 13 mph 1004.8mb 38f 27f
10:36 11 14 mph 1005mb 38f 26f
10:30 11 14 mph 1005mb 38f 26f
10:24 13 14 mph 1005.3mb 38f 26f
10:18 11 14 mph 1005.6mb 38f 25f
10:12 13 14 mph 1005.7mb 38f 25f
10:06 13 14 mph 1005.7mb 38f 25f
10:00 11 14 mph 1005.7mb 38f 25f
9:54 11 14 mph 1005.9mb 38f 24f
9:48 11 15 mph 1006.2mb 38f 24f
9:42 11 14 mph 1006.2mb 38f 24f
9:36 13 15 mph 1006.3mb 38f 23f
9:30 11 16 mph 1006.2mb 38f 23f
9:24 13 15 mph 1006mb 39f 23f
9:18 13 15 mph 1006mb 39f 23f
9:12 11 14 mph 1006.2mb 39f 23f
9:06 11 14 mph 1006.4mb 39f 23f
9:00 10 14 mph 1006.4mb 39f 23f
8:54 10 14 mph 1006.3mb 39f 23f
8:48 10 13 mph 1006.3mb 39f 22f
8:42 10 13 mph 1006.4mb 39f 22f
8:36 11 13 mph 1006.4mb 39f 22f
8:30 9 11 mph 1006.7mb 39f 22f
8:24 8 13 mph 1006.7mb 39f 22f
8:18 10 13 mph 1006.8mb 39f 22f
8:12 10 13 mph 1007mb 39f 22f
8:06 8 11 mph 1007.1mb 39f 22f
8:00 10 13 mph 1007.1mb 39f 22f
7:54 10 13 mph 1007.1mb 39f 22f
7:48 9 13 mph 1007.2mb 39f 22f
7:42 10 13 mph 1007.1mb 39f 22f
7:36 9 11 mph 1007.2mb 39f 22f
7:30 8 9 mph 1007.1mb 39f 22f
7:24  -  mph 1007.3mb 39f 22f
7:18  -  mph 1007.5mb 39f 22f
7:12  -  mph 1007.4mb 39f 22f
7:06  -  mph 1007.5mb 39f 22f
7:00  -  mph 1007.4mb 39f 22f
6:54 2 8 mph 1007.1mb 39f 22f
6:48 7 10 mph 1006.8mb 38f 22f
6:42 9 13 mph 1006.5mb 38f 22f
6:36 10 13 mph 1006.3mb 38f 22f
6:30 7 14 mph 1006.4mb 38f 22f
6:24 11 15 mph 1005.7mb 38f 22f
6:18 13 15 mph 1005.3mb 38f 22f
6:12 14 17 mph 1005.3mb 38f 22f
6:06 16 21 mph 1004.9mb 38f 22f
6:00 17 22 mph 1004.5mb 38f 22f
5:54 18 22 mph 1004.5mb 39f 22f
5:48 17 21 mph 1005.1mb 39f 22f
5:42 14 17 mph 1005.5mb 39f 22f
5:36 13 16 mph 1005.9mb 39f 23f
5:30 14 15 mph 1006.2mb 39f 22f
5:24 11 15 mph 1006.6mb 39f 22f
5:18 13 15 mph 1006.7mb 39f 22f
5:12 14 16 mph 1006.9mb 39f 23f
5:06 13 15 mph 1007mb 39f 23f
5:00 13 15 mph 1007.3mb 39f 23f
4:54 11 14 mph 1007.5mb 39f 22f
4:48  -  mph 1007.6mb 39f 23f
4:42  -  mph 1007.5mb 39f 23f
4:36  -  mph 1007.5mb 39f 23f
4:30 10 14 mph 1007.4mb 38f 23f
4:24 13 14 mph 1007.3mb 38f 23f
4:18 11 14 mph 1007.2mb 38f 23f
4:12 11 15 mph 1007.1mb 38f 23f
4:06 13 16 mph 1007mb 38f 23f
4:00 14 17 mph 1006.8mb 38f 23f
3:54 15 17 mph 1006.7mb 38f 23f
3:48 14 15 mph 1006.8mb 38f 23f
3:42 13 16 mph 1007.1mb 38f 23f
3:36 14 17 mph 1007mb 38f 23f
3:30 15 17 mph 1007.1mb 38f 23f
3:24 14 17 mph 1007.1mb 38f 23f
3:18 14 16 mph 1007.3mb 38f 23f
3:12 14 17 mph 1007.4mb 38f 23f
3:06 14 18 mph 1007.6mb 38f 23f
3:00 15 17 mph 1007.5mb 38f 24f
2:54 15 18 mph 1007.7mb 38f 24f
2:48 14 17 mph 1007.8mb 38f 24f
2:42 15 18 mph 1007.9mb 38f 23f
2:36 16 18 mph 1007.8mb 38f 23f
2:30 13 17 mph 1008mb 38f 24f
2:24 14 18 mph 1008.2mb 38f 24f
2:18 15 18 mph 1008.2mb 38f 24f
2:12 14 20 mph 1008.3mb 38f 23f
2:06 14 20 mph 1008.4mb 38f 23f
2:00 14 17 mph 1008.4mb 39f 23f
1:54 14 17 mph 1008.4mb 39f 24f
1:48 15 17 mph 1008.3mb 39f 24f
1:42 14 17 mph 1008.3mb 39f 24f
1:36 16 18 mph 1008.2mb 39f 23f
1:30 15 18 mph 1008.2mb 39f 23f
1:24 13 18 mph 1008.2mb 39f 24f
1:18 15 20 mph 1008.2mb 39f 24f
1:12 15 17 mph 1008.1mb 39f 24f
1:06 16 18 mph 1008.1mb 39f 24f
1:00 15 17 mph 1008.2mb 39f 23f
12:54 15 17 mph 1008.2mb 39f 24f
12:48 14 17 mph 1008.2mb 39f 24f
12:42 14 17 mph 1008.3mb 39f 24f
12:36 15 17 mph 1008.3mb 39f 24f
12:30 13 18 mph 1008.3mb 39f 24f
12:24 15 20 mph 1008.3mb 39f 24f
12:18 15 18 mph 1008.4mb 39f 24f
12:12 17 21 mph 1008.4mb 39f 24f
12:06 16 20 mph 1008.5mb 39f 24f
12:00 15 20 mph 1008.5mb 39f 24f
lun 02/08 11:54 16 20 mph 1008.5mb 39f 24f
11:48 15 21 mph 1008.6mb 39f 24f
11:42 15 20 mph 1008.6mb 39f 24f
11:36 17 21 mph 1008.7mb 39f 23f
11:30 15 20 mph 1008.6mb 39f 23f
11:24 16 21 mph 1008.6mb 39f 23f
11:18 17 20 mph 1008.7mb 39f 24f
11:12 16 20 mph 1008.9mb 39f 23f
11:06 17 21 mph 1009mb 39f 23f
11:00 17 21 mph 1008.9mb 39f 23f
10:54 17 22 mph 1009mb 39f 23f
10:48 17 21 mph 1009.1mb 39f 23f
10:42 18 22 mph 1009mb 39f 23f
10:36 17 23 mph 1009.1mb 39f 23f
10:30 18 24 mph 1009.1mb 39f 23f
10:24 17 21 mph 1009mb 39f 23f
10:18 20 23 mph 1009mb 39f 23f
10:12 20 22 mph 1009mb 39f 23f
10:06 20 24 mph 1009mb 39f 23f
10:00 18 21 mph 1009mb 39f 23f
9:54 18 22 mph 1008.9mb 39f 22f
9:48 18 24 mph 1008.9mb 39f 22f
9:42 18 22 mph 1008.9mb 39f 22f
9:36 20 24 mph 1008.8mb 39f 22f
9:30 17 25 mph 1008.8mb 39f 22f
9:24 21 24 mph 1008.6mb 39f 22f
9:18 21 24 mph 1008.7mb 39f 22f
9:12 20 23 mph 1008.9mb 39f 23f
9:06 17 25 mph 1009mb 39f 23f
9:00 20 23 mph 1009mb 39f 23f
8:54 18 24 mph 1009.1mb 39f 23f
8:48  -  mph 1009.1mb 39f 23f
8:42  -  mph 1009mb 39f 23f
8:36  -  mph 1008.8mb 39f 23f
8:30  -  mph 1008.7mb 39f 22f
8:24  -  mph 1008.6mb 39f 22f
8:18  -  mph 1008.4mb 39f 22f
8:12  -  mph 1008.5mb 39f 23f
8:06  -  mph 1008.5mb 39f 22f
8:00 24 28 mph 1008.3mb 39f 22f
7:54 20 24 mph 1008.4mb 39f 23f
7:48 22 26 mph 1008.4mb 39f 23f
7:42 21 26 mph 1008.5mb 39f 23f
7:36 20 25 mph 1008.5mb 39f 23f
7:30 22 29 mph 1008.5mb 40f 23f
7:24 24 29 mph 1008.4mb 40f 23f
7:18 20 24 mph 1008.5mb 40f 23f
7:12 18 26 mph 1008.4mb 40f 23f
7:06 24 29 mph 1008.2mb 40f 22f
7:00 21 25 mph 1008.3mb 40f 23f
6:54 22 28 mph 1008.2mb 40f 22f
6:48 24 29 mph 1008.1mb 40f -
6:42 23 26 mph 1008.1mb 40f -
6:36 21 26 mph 1008.1mb 40f -
6:30 22 26 mph 1007.9mb 40f 23f
6:24 23 26 mph 1007.7mb 40f 23f
6:18 21 23 mph 1007.8mb 40f 23f
6:12 20 24 mph 1007.8mb 40f 23f
6:06 20 28 mph 1007.7mb 40f 23f
6:00 23 28 mph 1007.5mb 40f 24f
5:54 22 29 mph 1007.3mb 40f 23f
5:48 25 28 mph 1007.2mb 40f 23f
5:42 22 26 mph 1007.3mb 40f 24f
5:36 22 30 mph 1007.2mb 40f 24f
5:30 22 28 mph 1007.1mb 40f 24f
5:24 23 29 mph 1007mb 40f 24f
5:18 24 32 mph 1006.9mb 40f 24f
5:12 25 29 mph 1006.8mb 39f 23f
5:06 24 28 mph 1006.6mb 39f 23f
5:00 25 30 mph 1006.5mb 39f 23f
4:54 26 32 mph 1006.3mb 39f 23f
4:48  -  mph 1006.3mb 39f 24f
4:42  -  mph 1006.3mb 40f 23f
4:36  -  mph 1006.1mb 40f 23f
4:30 24 29 mph 1006.2mb 40f 23f
4:24 24 31 mph 1006.1mb 40f 23f
4:18 24 29 mph 1005.9mb 40f 23f
4:12 28 32 mph 1005.8mb 40f 23f
4:06 24 30 mph 1005.8mb 40f 23f
4:00 25 30 mph 1005.7mb 39f 23f
3:54 25 32 mph 1005.6mb 39f 23f
3:48 24 32 mph 1005.5mb 39f 23f
3:42 28 33 mph 1005.4mb 39f 23f
3:36 26 29 mph 1005.3mb 39f 23f
3:30 25 30 mph 1005.3mb 39f 23f
3:24 25 32 mph 1005.1mb 38f 23f
3:18 29 37 mph 1005mb 38f 23f
3:12 28 32 mph 1005mb 38f 23f
3:06 26 33 mph 1004.9mb 38f 23f
3:00 25 32 mph 1004.8mb 38f 23f
2:54 26 36 mph 1004.8mb 39f 24f
2:48 29 33 mph 1004.8mb 39f 23f
2:42 24 30 mph 1005mb 39f 23f
2:36 28 34 mph 1004.9mb 39f 23f
2:30 25 32 mph 1004.9mb 39f 23f
2:24 24 34 mph 1005mb 39f 23f
2:18 28 32 mph 1004.9mb 39f 23f
2:12 28 34 mph 1004.8mb 39f 23f
2:06 25 31 mph 1004.8mb 39f 23f
2:00 28 33 mph 1004.8mb 39f 23f
1:54 28 37 mph 1004.8mb 39f 22f
1:48 28 32 mph 1004.7mb 39f 23f
1:42 24 34 mph 1004.9mb 39f 23f
1:36 28 33 mph 1004.9mb 39f 22f
1:30 25 31 mph 1005mb 39f 23f
1:24 23 32 mph 1005.1mb 39f 23f
1:18 25 30 mph 1005.2mb 39f 23f
1:12 23 31 mph 1005.2mb 39f 23f
1:06 25 30 mph 1005.2mb 39f 23f
1:00 23 33 mph 1005.4mb 39f 22f
12:54 28 34 mph 1005.4mb 39f 22f
12:48 28 32 mph 1005.6mb 39f 22f
12:42 25 32 mph 1005.9mb 39f 22f
12:36 23 29 mph 1006.2mb 39f 23f
12:30 28 34 mph 1006.3mb 39f 23f
12:24 24 30 mph 1006.5mb 39f 23f
12:18 26 33 mph 1006.6mb 39f 22f
12:12 23 34 mph 1006.7mb 39f 23f
12:06 28 34 mph 1006.7mb 39f 23f
12:00 25 34 mph 1006.8mb 39f 23f
11:54 28 37 mph 1006.9mb 39f 23f
11:48 28 33 mph 1007mb 39f 23f
11:42 25 31 mph 1007.2mb 39f 23f
11:36 26 36 mph 1007.4mb 39f 23f
11:30 26 34 mph 1007.5mb 39f 23f
11:24 29 34 mph 1007.6mb 39f 23f
11:18 25 31 mph 1007.9mb 39f 24f
11:12 30 36 mph 1007.9mb 39f 24f
11:06 28 37 mph 1008.1mb 39f 24f
11:00 25 31 mph 1008.2mb 39f 24f
10:54 25 31 mph 1008.4mb 39f 24f
10:48 25 33 mph 1008.5mb 39f 24f
10:42 28 34 mph 1008.5mb 39f 24f
10:36 25 34 mph 1008.8mb 39f 25f
10:30 25 34 mph 1008.9mb 39f 25f
10:24 29 33 mph 1009mb 39f 25f
10:18 23 30 mph 1009.2mb 39f 25f
10:12 26 31 mph 1009.1mb 39f 25f
10:06 25 31 mph 1009.1mb 39f 25f
10:00 25 30 mph 1009mb 39f 26f
9:54 24 28 mph 1009mb 39f 25f
9:48 28 31 mph 1008.8mb 39f 25f
9:42 25 29 mph 1008.7mb 39f 26f
9:36 25 30 mph 1008.7mb 39f 26f
9:30 25 32 mph 1008.7mb 39f 28f
9:24 25 29 mph 1008.6mb 39f 28f
9:18 26 30 mph 1008.5mb 39f 28f
9:12 24 28 mph 1008.6mb 39f 28f
9:06 23 28 mph 1008.7mb 39f 29f
9:00 22 29 mph 1008.7mb 40f 29f
8:54 21 25 mph 1008.7mb 40f 29f
8:48 18 23 mph 1008.7mb 40f 29f
8:42 22 25 mph 1008.7mb 40f 30f
8:36 18 23 mph 1008.8mb 40f 30f
8:30 18 32 mph 1008.7mb 40f 30f
8:24 18 32 mph 1008.8mb 40f 31f
8:18 23 33 mph 1008.8mb 40f 31f
8:12 23 39 mph 1008.9mb 40f 31f
8:06 28 40 mph 1008.8mb 40f 31f
8:00 24 34 mph 1009mb 40f 31f
7:54 28 37 mph 1009.1mb 40f 32f
7:48 21 34 mph 1009.2mb 40f 32f
7:42 25 38 mph 1009.2mb 40f 32f
7:36 29 37 mph 1009mb 40f 33f
7:30 29 38 mph 1009mb 40f 33f
7:24 29 32 mph 1008.9mb 40f 33f
7:18 31 38 mph 1008.8mb 40f 33f
7:12 32 47 mph 1008.7mb 40f 34f
7:06 29 43 mph 1008.9mb 40f 34f
7:00 33 43 mph 1008.6mb 40f 34f
6:54 28 36 mph 1008.7mb 40f 34f
6:48 24 37 mph 1009mb 40f 34f
6:42 30 39 mph 1008.8mb 40f 34f
6:36 25 38 mph 1008.9mb 40f 34f
6:30 29 38 mph 1009mb 40f 34f
6:24 30 40 mph 1008.9mb 40f 34f
6:18 34 44 mph 1008.9mb 40f 34f
6:12 31 38 mph 1009mb 40f 34f
6:06 29 41 mph 1009.1mb 40f 35f
6:00 26 39 mph 1009mb 40f 35f
5:54 29 41 mph 1009.2mb 40f 35f
5:48 25 34 mph 1009.1mb 40f 35f
5:42 25 39 mph 1009.2mb 40f 35f
5:36 32 39 mph 1009.2mb 40f 35f
5:30 32 44 mph 1009.2mb 40f 35f
5:24 23 41 mph 1009.3mb 40f 35f
5:18 32 44 mph 1009mb 40f 35f
5:12 33 46 mph 1008.6mb 40f 35f
5:06 29 37 mph 1008.8mb 40f 35f
5:00 31 43 mph 1008.6mb 40f 35f
4:54 29 47 mph 1008.5mb 40f 36f
4:48  -  mph 1008.3mb 40f 36f
4:42  -  mph 1008.4mb 40f 36f
4:36  -  mph 1008.5mb 40f 36f
4:30 31 44 mph 1008.6mb 40f 36f
4:24 33 43 mph 1008.8mb 40f 37f
4:18 31 40 mph 1008.9mb 40f 37f
4:12 26 38 mph 1009.1mb 40f 37f
4:06 25 46 mph 1009.3mb 40f 37f
4:00 28 43 mph 1009.3mb 40f 37f
3:54 30 37 mph 1009.4mb 40f 37f
3:48 30 39 mph 1009.4mb 40f 37f
3:42 29 34 mph 1009.6mb 40f 37f
3:36 33 45 mph 1009.6mb 40f 37f
3:30 28 32 mph 1009.7mb 40f 38f
3:24 26 38 mph 1009.9mb 40f 38f
3:18 25 36 mph 1009.8mb 40f 38f
3:12 22 31 mph 1009.9mb 40f 38f
3:06 25 34 mph 1009.9mb 40f 38f
3:00 24 32 mph 1010.1mb 40f 38f
2:54 23 30 mph 1010.5mb 40f 38f
2:48 22 29 mph 1010.8mb 40f 38f
2:42 23 33 mph 1011mb 40f 38f
2:36 24 33 mph 1011.2mb 40f 38f
2:30 26 33 mph 1011.3mb 40f 38f
2:24 25 32 mph 1011.4mb 40f 38f
2:18 23 31 mph 1011.4mb 40f 38f
2:12 20 26 mph 1011.7mb 40f 38f
2:06 20 28 mph 1011.7mb 40f 38f
2:00 20 25 mph 1011.8mb 40f 38f
1:54 22 26 mph 1012.1mb 40f 38f
1:48 17 23 mph 1012.1mb 40f 38f
1:42 16 23 mph 1012.2mb 40f 38f
1:36 18 25 mph 1012.2mb 40f 38f
1:30 16 23 mph 1012.3mb 40f 38f
1:24 16 23 mph 1012.5mb 40f 37f
1:18 14 17 mph 1012.6mb 40f 37f
1:12 13 16 mph 1012.8mb 40f 37f
1:06 13 17 mph 1013.1mb 40f 37f
1:00 11 15 mph 1013.3mb 40f 37f
12:54 13 16 mph 1013.5mb 40f 37f
12:48 13 17 mph 1013.6mb 40f 37f
12:42 11 16 mph 1013.8mb 40f 37f
12:36 11 20 mph 1013.9mb 40f 37f
12:30 14 21 mph 1014mb 40f 37f
12:24 14 17 mph 1014.3mb 40f 37f
12:18 13 18 mph 1014.6mb 40f 37f
12:12 13 18 mph 1014.9mb 40f 37f
12:06 13 17 mph 1015.2mb 40f 37f
12:00 13 16 mph 1015.5mb 40f 37f
dom 02/07 11:54 13 17 mph 1015.6mb 40f 37f
11:48 14 16 mph 1015.8mb 40f 36f
11:42 13 16 mph 1015.9mb 40f 36f
11:36 11 15 mph 1016mb 40f 36f
11:30 13 16 mph 1016.1mb 40f 36f
11:24 13 15 mph 1016.3mb 40f 36f
11:18 13 15 mph 1016.4mb 40f 36f
11:12 11 14 mph 1016.3mb 40f 36f
11:06 11 15 mph 1016.3mb 40f 36f
11:00 14 17 mph 1016.4mb 40f 37f
10:54 13 17 mph 1016.3mb 40f 36f
10:48 11 16 mph 1016.4mb 40f 37f
10:42 13 16 mph 1016.5mb 40f 36f
10:36 13 17 mph 1016.6mb 40f 36f
10:30 13 18 mph 1016.7mb 40f 37f
10:24 14 17 mph 1016.8mb 40f 37f
10:18 11 14 mph 1017mb 40f 37f
10:12 11 14 mph 1017mb 40f 37f
10:06 11 14 mph 1017mb 40f 36f
10:00 13 16 mph 1017.1mb 40f 36f
9:54 11 14 mph 1017.2mb 40f 36f
9:48 11 14 mph 1017.3mb 40f 36f
9:42 13 16 mph 1017.4mb 40f 37f
9:36 13 15 mph 1017.5mb 40f 37f
9:30 13 15 mph 1017.7mb 40f 37f
9:24 11 14 mph 1017.8mb 40f 37f
9:18 13 15 mph 1017.6mb 40f 37f
9:12 13 15 mph 1017.6mb 40f 37f
9:06 13 16 mph 1017.6mb 40f 37f
9:00  -  mph 1017.7mb 40f 37f
8:54  -  mph 1017.8mb 40f 37f
8:48  -  mph 1018mb 40f 37f
8:42  -  mph 1018.3mb 40f 37f
8:36  -  mph 1018.5mb 40f 37f
8:30 14 17 mph 1018.7mb 40f 37f
8:24 14 17 mph 1018.8mb 40f 37f
8:18  -  mph 1018.8mb 40f 37f
8:12  -  mph 1018.9mb 40f 37f
8:06  -  mph 1018.8mb 40f 37f
8:00  -  mph 1019mb 40f 37f
7:54  -  mph 1019.1mb 40f 37f
7:48  -  mph 1019.1mb 40f 37f
7:42  -  mph 1019.3mb 40f 37f
7:36  -  mph 1019.4mb 40f 37f
7:30 14 16 mph 1019.5mb 40f 37f
7:24 13 15 mph 1019.4mb 40f 37f
7:18 13 16 mph 1019.5mb 40f 37f
7:12 13 16 mph 1019.3mb 40f 38f
7:06 13 15 mph 1019.2mb 40f 38f
7:00 13 14 mph 1019.4mb 40f 38f
6:54 13 18 mph 1019.4mb 40f 38f
6:48 13 18 mph 1019.4mb 40f -
6:42 14 17 mph 1019.4mb 40f -
6:36 14 17 mph 1019.5mb 40f -
6:30 13 15 mph 1019.4mb 40f 39f
6:24 14 16 mph 1019.2mb 40f 39f
6:18  -  mph 1019.3mb 40f 39f
6:12  -  mph 1019.3mb 40f 39f
6:06  -  mph 1019.4mb 40f 39f
6:00 9 13 mph 1019.6mb 40f 39f
5:54 9 10 mph 1019.8mb 40f 39f
5:48 8 9 mph 1019.7mb 40f 40f
5:42 7 8 mph 1019.5mb 40f 40f
5:36 7 8 mph 1019.4mb 40f 40f
5:30 6 7 mph 1019.5mb 40f 40f
5:24 3 5 mph 1019.7mb 41f 40f
5:18 3 5 mph 1019.7mb 41f 40f
5:12 2
mph
1019.7mb 41f 41f
5:06 1 2 mph 1019.9mb 41f 40f
5:00 2
mph
1019.7mb 41f 40f
4:54 1 2 mph 1019.6mb 41f 40f
4:48  -  mph 1019.6mb 41f 40f
4:42  -  mph 1019.5mb 41f 41f
4:36  -  mph 1019.4mb 41f 41f
4:30  -  1 mph 1019.4mb 41f 41f
4:24  -  1 mph 1019.3mb 41f 42f
4:18  -  mph 1019.5mb 41f 42f
4:12  -  mph 1019.5mb 41f 41f
4:06  -  1 mph 1019.5mb 41f 41f
4:00 1 2 mph 1019.4mb 41f 40f
3:54 2
mph
1019.5mb 41f 40f
3:48 2 3 mph 1019.5mb 41f 40f
3:42 3 5 mph 1019.7mb 41f 41f
3:36 5 6 mph 1019.8mb 41f 41f
3:30 6
mph
1020.1mb 41f 41f
3:24 6 7 mph 1020.1mb 41f 40f
3:18 7
mph
1020.3mb 41f 40f
3:12 6 7 mph 1020.3mb 41f 41f
3:06 6
mph
1020.3mb 41f 41f
3:00 5 6 mph 1020.3mb 41f 42f
2:54 5 6 mph 1020.3mb 40f 41f
2:48 6 8 mph 1020.4mb 40f 41f
2:42 7 8 mph 1020.4mb 40f 41f
2:36 7 8 mph 1020.4mb 40f 41f
2:30 7 9 mph 1020.5mb 40f 41f
2:24 8
mph
1020.7mb 40f 41f
2:18 8 10 mph 1020.9mb 40f 41f
2:12 8 10 mph 1020.9mb 40f 41f
2:06 9 10 mph 1020.9mb 40f 41f
2:00 6 7 mph 1021.1mb 40f 42f
1:54 6 7 mph 1021.3mb 40f 42f
1:48 6 7 mph 1021.3mb 40f 42f
1:42 5 6 mph 1021.3mb 40f 41f
1:36 5 6 mph 1021.3mb 40f 41f
1:30 6 7 mph 1021.5mb 40f 40f
1:24 7
mph
1021.7mb 40f 40f
1:18 7 8 mph 1021.8mb 40f 40f
1:12 8 9 mph 1021.7mb 40f 40f
1:06 8 9 mph 1021.7mb 40f 39f
1:00 8 9 mph 1021.7mb 40f 39f
12:54 8 9 mph 1021.8mb 40f 39f
12:48 7 8 mph 1021.7mb 40f 39f
12:42 7
mph
1021.9mb 40f 40f
12:36 6
mph
1022mb 40f 40f
12:30 3 5 mph 1021.8mb 40f 41f
12:24 2 3 mph 1021.6mb 40f 42f
12:18 2
mph
1021.3mb 40f 39f
12:12 2 3 mph 1021.3mb 40f 39f
12:06 3
mph
1021.2mb 40f 39f
12:00 3 5 mph 1021.1mb 40f 39f
11:54 3 5 mph 1021.1mb 40f 39f
11:48 5
mph
1021.1mb 40f 38f
11:42 5 7 mph 1021mb 40f 38f
11:36 6 7 mph 1020.9mb 40f 38f
11:30 6 7 mph 1021mb 39f 40f
11:24 5 6 mph 1021.1mb 39f 41f
11:18 5 6 mph 1021.4mb 39f 41f
11:12 3 5 mph 1021.6mb 39f 41f
11:06 2 3 mph 1021.9mb 39f 39f
11:00 3 5 mph 1022mb 39f 37f
10:54 3
mph
1021.9mb 39f 42f
10:48 2
mph
1022.1mb 39f 42f
10:42 1 2 mph 1022.1mb 39f 40f
10:36 2
mph
1022.3mb 39f 38f
10:30 2 3 mph 1022.4mb 39f 37f
10:24 2 3 mph 1022.7mb 39f 37f
10:18  -  1 mph 1022.7mb 39f 40f
10:12 1 2 mph 1022.7mb 39f 39f
10:06  -  1 mph 1022.7mb 39f 39f
10:00 2 3 mph 1022.5mb 39f 37f
9:54 3 6 mph 1022.6mb 39f 35f
9:48 6 7 mph 1022.4mb 39f 35f
9:42 5 6 mph 1022.5mb 39f 35f
9:36 5 6 mph 1022.7mb 39f 35f
9:30 3 6 mph 1023mb 39f 35f
9:24 3 5 mph 1023.1mb 39f 35f
9:18 5 6 mph 1023.1mb 39f 35f
9:12 2 5 mph 1023mb 39f 35f
9:06 3 5 mph 1022.8mb 39f 34f
9:00 3
mph
1022.7mb 39f 35f
8:54 2 3 mph 1022.8mb 39f 35f
8:48 2 5 mph 1022.8mb 39f 36f
8:42 3 6 mph 1022.8mb 39f 35f
8:36 3 5 mph 1022.6mb 39f 35f
8:30 2 3 mph 1022.9mb 39f 34f
8:24 3 5 mph 1022.9mb 39f 35f
8:18 5 7 mph 1022.8mb 39f 36f
8:12 5 6 mph 1023mb 39f 36f
8:06  -  2 mph 1022.7mb 39f 37f
8:00 2
mph
1022.6mb 39f 36f
7:54  -  3 mph 1022.7mb 39f 34f
7:48 2 3 mph 1022.8mb 39f 34f
7:42 3 5 mph 1023.3mb 39f 34f
7:36 3 6 mph 1023.3mb 39f 33f
7:30 3 5 mph 1023.3mb 39f 33f
7:24 3 5 mph 1023.3mb 39f 32f
7:18 5
mph
1023.3mb 39f 32f
7:12 3 5 mph 1023.1mb 39f 32f
7:06 2 8 mph 1023.1mb 39f 32f
7:00 6 10 mph 1023mb 39f 32f
6:54 3 6 mph 1022.6mb 39f 32f
6:48 3 5 mph 1022.6mb 39f 31f
6:42  -  mph 1022.6mb 39f 31f
6:36  -  mph 1022.6mb 39f 31f
6:30  -  5 mph 1022.6mb 39f 31f
6:24 3 7 mph 1022.4mb 39f 32f
6:18 5 6 mph 1022.4mb 39f 32f
6:12 5 7 mph 1022.4mb 39f 31f
6:06 5 6 mph 1022.3mb 39f 32f
6:00 3 7 mph 1022.3mb 39f 32f
5:54 6 7 mph 1022.5mb 39f 32f
5:48 5 8 mph 1022.5mb 39f 32f
5:42 7 8 mph 1022.5mb 39f 32f
5:36 6
mph
1022.4mb 39f 32f
5:30 6 7 mph 1022.4mb 40f 33f
5:24 5 8 mph 1022.5mb 40f 33f
5:18  -  mph 1022.6mb 40f 33f
5:12  -  mph 1022.6mb 40f 32f
5:06  -  mph 1022.7mb 40f 32f
5:00  -  2 mph 1022.8mb 40f 32f
4:54 2 3 mph 1022.9mb 40f 32f
4:48  -  mph - 40f 32f
4:42  -  mph - 40f 32f
4:36  -  mph - 40f 32f
4:30 3
mph
1023.1mb 40f 33f
4:24 3 5 mph 1023.2mb 40f 33f
4:18  -  5 mph 1023.1mb 40f 33f
4:12 3 5 mph 1023.2mb 40f 34f
4:06 2 5 mph 1023.2mb 40f 34f
4:00 3 6 mph 1023.3mb 40f 34f
3:54 5 6 mph 1023.4mb 40f 34f
3:48 5 7 mph 1023.5mb 40f 34f
3:42 6 9 mph 1023.4mb 40f 34f
3:36 7 8 mph 1023.5mb 40f 34f
3:30 7 9 mph 1023.5mb 40f 34f
3:24 8 10 mph 1023.4mb 40f 34f
3:18 8 13 mph 1023.5mb 40f 34f
3:12 7 10 mph 1023.4mb 40f 34f
3:06 8 10 mph 1023.4mb 40f 34f
3:00 9 11 mph 1023.3mb 40f 34f
2:54 7 10 mph 1023.3mb 40f 34f
2:48 7 9 mph 1023.3mb 40f 34f
2:42 7 9 mph 1023.3mb 40f 33f
2:36 6 8 mph 1023.3mb 40f 33f
2:30 6 7 mph 1023.4mb 40f 33f
2:24 6
mph
1023.4mb 40f 33f
2:18 6 7 mph 1023.6mb 40f 33f
2:12 5 7 mph 1023.6mb 40f 33f
2:06 6 7 mph 1023.6mb 40f 33f
2:00 5 7 mph 1023.6mb 40f 33f
1:54 6 8 mph 1023.6mb 40f 34f
1:48 8 10 mph 1023.7mb - -
1:42 8 10 mph 1023.7mb - -